Le Mars, IA

3:52 PM CDT on October 15, 2019 (GMT -0500)
Le Mars Municipal

Weather History for KLRJ - August, 2019

Change the Weather History Date:

Friday, August 30, 2019

  Actual Average Record
Temperature  
Mean Temperature 60 °F -  
Max Temperature 71 °F 84 °F 98 °F (2012)
Min Temperature 50 °F 60 °F 44 °F (2006)
Degree Days  
Heating Degree Days 4    
Growing Degree Days 10 (Base 50)    
Moisture  
Dew Point 53 °F    
Average Humidity 73    
Maximum Humidity 100    
Minimum Humidity 43    
Precipitation  
Precipitation 0.00 in - - ()
Sea Level Pressure  
Sea Level Pressure 30.18 in    
Wind  
Wind Speed 4 mph (NE)    
Max Wind Speed 10 mph    
Max Gust Speed 14 mph    
Visibility 10 miles    
Events      
Averages and records for this station are not official NWS values.
T = Trace of Precipitation, MM = Missing Value Source: NWS Daily Summary

Daily Weather History Graph

Daily Weather History Graph

Search for Another Location

Airport or City:

Astronomy

Aug. 30, 2019 Rise Set
Actual Time 6:47 AM CDT 8:02 PM CDT
Civil Twilight 6:17 AM CDT 8:32 PM CDT
Nautical Twilight 5:42 AM CDT 9:07 PM CDT
Astronomical Twilight 5:05 AM CDT 9:44 PM CDT
Moon 6:47 AM CDT (8/30) 8:40 PM CDT (8/30)
Length of Visible Light 14h 14m
Length of Day
13h 15m
New Moon, 0% of the Moon is Illuminated
Aug 30
New Moon
Sep 5
First Quarter
Sep 13
Full
Sep 21
Last Quarter
Sep 28
New

Hourly Weather History & Observations

Time (CDT) Temp. Dew Point Humidity Pressure Visibility Wind Dir Wind Speed Gust Speed Precip Events Conditions
12:15 AM 59.0 °F 53.6 °F 82% 30.06 in 10.0 mi NNE 8.1 mph - N/A   Clear
12:35 AM 57.2 °F 53.6 °F 88% 30.07 in 10.0 mi Calm Calm - N/A   Clear
12:55 AM 55.4 °F 53.6 °F 94% 30.07 in 10.0 mi Calm Calm - N/A   Clear
1:15 AM 55.4 °F 53.6 °F 94% 30.08 in 10.0 mi North 3.5 mph - N/A   Clear
1:35 AM 55.4 °F 53.6 °F 94% 30.09 in 10.0 mi NNE 4.6 mph - N/A   Clear
1:55 AM 55.4 °F 53.6 °F 94% 30.11 in 10.0 mi NNE 4.6 mph - N/A   Clear
2:15 AM 55.4 °F 53.6 °F 94% 30.12 in 10.0 mi Calm Calm - N/A   Clear
2:35 AM 55.4 °F 53.6 °F 94% 30.14 in 10.0 mi Calm Calm - N/A   Clear
2:55 AM 53.6 °F 53.6 °F 100% 30.14 in 10.0 mi Calm Calm - N/A   Clear
3:15 AM 51.8 °F 51.8 °F 100% 30.15 in 10.0 mi SW 3.5 mph - N/A   Clear
3:35 AM 53.6 °F 53.6 °F 100% 30.16 in 10.0 mi WSW 3.5 mph - N/A   Clear
3:55 AM 51.8 °F 51.8 °F 100% 30.15 in 10.0 mi NNW 3.5 mph - N/A   Clear
4:15 AM 51.8 °F 51.8 °F 100% 30.15 in 10.0 mi Calm Calm - N/A   Clear
4:35 AM 51.8 °F 51.8 °F 100% 30.15 in 10.0 mi Calm Calm - N/A   Clear
4:55 AM 51.8 °F 51.8 °F 100% 30.15 in 10.0 mi Calm Calm - N/A   Clear
5:15 AM 51.8 °F 51.8 °F 100% 30.16 in 10.0 mi Calm Calm - N/A   Clear
5:35 AM 51.8 °F 51.8 °F 100% 30.17 in 10.0 mi Calm Calm - N/A   Clear
5:55 AM 51.8 °F 50.0 °F 94% 30.18 in 10.0 mi Calm Calm - N/A   Clear
6:15 AM 50.0 °F 50.0 °F 100% 30.17 in 10.0 mi NNE 5.8 mph - N/A   Clear
6:35 AM 51.8 °F 51.8 °F 100% 30.16 in - NNE 5.8 mph - N/A   Unknown
6:55 AM 51.8 °F 51.8 °F 100% 30.17 in 10.0 mi Calm Calm - N/A   Unknown
7:15 AM 51.8 °F 51.8 °F 100% 30.20 in 10.0 mi South 5.8 mph - N/A   Clear
7:35 AM - - N/A% 30.20 in - Calm Calm - N/A   Unknown
7:55 AM 51.8 °F 51.8 °F 100% 30.21 in 10.0 mi Calm Calm - N/A   Unknown
8:15 AM 53.6 °F 53.6 °F 100% 30.22 in 9.0 mi South 4.6 mph - N/A   Clear
8:35 AM 57.2 °F 55.4 °F 94% 30.21 in 10.0 mi Calm Calm - N/A   Clear
8:55 AM 59.0 °F 53.6 °F 82% 30.21 in 10.0 mi Calm Calm - N/A   Unknown
9:15 AM 60.8 °F 53.6 °F 77% 30.21 in 10.0 mi Calm Calm - N/A   Clear
9:35 AM 62.6 °F 55.4 °F 77% 30.21 in 10.0 mi Calm Calm - N/A   Clear
9:55 AM 64.4 °F 53.6 °F 68% 30.22 in 10.0 mi ENE 5.8 mph - N/A   Clear
10:15 AM 64.4 °F 53.6 °F 68% 30.21 in 10.0 mi ENE 8.1 mph - N/A   Unknown
10:35 AM 66.2 °F 53.6 °F 64% 30.21 in 10.0 mi Calm Calm - N/A   Clear
10:55 AM 68.0 °F 51.8 °F 56% 30.21 in 10.0 mi East 9.2 mph - N/A   Clear
11:15 AM 68.0 °F 51.8 °F 56% 30.22 in 10.0 mi East 6.9 mph 13.8 mph N/A   Unknown
11:35 AM 68.0 °F 50.0 °F 52% 30.22 in 10.0 mi Variable 3.5 mph - N/A   Clear
11:55 AM 69.8 °F 48.2 °F 46% 30.21 in 10.0 mi ESE 10.4 mph - N/A   Clear
12:15 PM 69.8 °F 50.0 °F 49% 30.21 in 10.0 mi East 6.9 mph - N/A   Clear
12:35 PM 71.6 °F 48.2 °F 43% 30.20 in 10.0 mi East 8.1 mph 13.8 mph N/A   Clear
12:55 PM 71.6 °F 48.2 °F 43% 30.21 in 10.0 mi North 8.1 mph - N/A   Clear
1:15 PM 69.8 °F 48.2 °F 46% 30.20 in 10.0 mi NNE 8.1 mph - N/A   Clear
1:35 PM 71.6 °F 48.2 °F 43% 30.20 in 10.0 mi NNE 8.1 mph - N/A   Clear
1:55 PM 69.8 °F 50.0 °F 49% 30.21 in 10.0 mi NE 4.6 mph 12.7 mph N/A   Clear
2:15 PM 71.6 °F 50.0 °F 46% 30.20 in 10.0 mi Variable 4.6 mph 11.5 mph N/A   Clear
2:35 PM 71.6 °F 50.0 °F 46% 30.20 in 10.0 mi East 9.2 mph - N/A   Scattered Clouds
2:55 PM 71.6 °F 50.0 °F 46% 30.20 in 10.0 mi ENE 6.9 mph - N/A   Partly Cloudy
3:15 PM 71.6 °F 50.0 °F 46% 30.20 in 10.0 mi North 5.8 mph - N/A   Partly Cloudy
3:35 PM 71.6 °F 51.8 °F 50% 30.20 in 10.0 mi NNE 6.9 mph - N/A   Scattered Clouds
3:55 PM 71.6 °F 51.8 °F 50% 30.20 in 10.0 mi NNE 8.1 mph - N/A   Partly Cloudy
4:15 PM 71.6 °F 51.8 °F 50% 30.19 in 10.0 mi NNE 8.1 mph - N/A   Clear
4:35 PM 71.6 °F 50.0 °F 46% 30.20 in 10.0 mi Variable 4.6 mph - N/A   Clear
4:55 PM 69.8 °F 50.0 °F 49% 30.19 in 10.0 mi ENE 5.8 mph - N/A   Clear
5:15 PM 69.8 °F 51.8 °F 53% 30.19 in 10.0 mi East 4.6 mph - N/A   Clear
5:35 PM 69.8 °F 51.8 °F 53% 30.17 in 10.0 mi NE 6.9 mph - N/A   Clear
5:55 PM 69.8 °F 51.8 °F 53% 30.16 in 10.0 mi ENE 9.2 mph - N/A   Clear
6:15 PM 69.8 °F 53.6 °F 56% 30.16 in 10.0 mi NE 6.9 mph - N/A   Clear
6:35 PM 69.8 °F 53.6 °F 56% 30.16 in 10.0 mi NE 6.9 mph - N/A   Clear
6:55 PM 69.8 °F 53.6 °F 56% 30.16 in 10.0 mi Variable 4.6 mph - N/A   Clear
7:15 PM 69.8 °F 53.6 °F 56% 30.16 in 10.0 mi ENE 8.1 mph - N/A   Clear
7:35 PM 68.0 °F 53.6 °F 60% 30.16 in 10.0 mi ENE 8.1 mph - N/A   Clear
7:55 PM 68.0 °F 53.6 °F 60% 30.17 in 10.0 mi ENE 6.9 mph - N/A   Scattered Clouds
8:15 PM 68.0 °F 55.4 °F 64% 30.17 in 10.0 mi East 6.9 mph - N/A   Scattered Clouds
8:35 PM 66.2 °F 55.4 °F 68% 30.19 in 10.0 mi East 8.1 mph - N/A   Clear
8:55 PM 66.2 °F 55.4 °F 68% 30.20 in 10.0 mi East 6.9 mph - N/A   Partly Cloudy
9:15 PM 66.2 °F 55.4 °F 68% 30.21 in 10.0 mi East 5.8 mph - N/A   Partly Cloudy
9:35 PM 64.4 °F 57.2 °F 77% 30.22 in 10.0 mi NE 5.8 mph - N/A   Mostly Cloudy
9:55 PM 64.4 °F 57.2 °F 77% 30.23 in 10.0 mi ENE 4.6 mph - N/A   Overcast
10:15 PM 64.4 °F 57.2 °F 77% 30.24 in 10.0 mi ENE 5.8 mph - N/A   Overcast
10:35 PM 62.6 °F 59.0 °F 88% 30.25 in 10.0 mi North 4.6 mph - N/A   Overcast
10:55 PM 62.6 °F 59.0 °F 88% 30.25 in 10.0 mi Calm Calm - N/A   Overcast
11:15 PM 62.6 °F 59.0 °F 88% 30.26 in 10.0 mi Calm Calm - N/A   Mostly Cloudy
11:35 PM 62.6 °F 59.0 °F 88% 30.25 in 10.0 mi NNE 4.6 mph - N/A   Mostly Cloudy
11:55 PM 62.6 °F 60.8 °F 94% 30.25 in 10.0 mi North 5.8 mph - N/A   Overcast